sensor_id;sensor_type;location;lat;lon;timestamp;P1;durP1;ratioP1;P2;durP2;ratioP2
71558;SDS011;59382;43.852;25.952;2024-02-23T00:01:59;10.88;;;6.75;;
71558;SDS011;59382;43.852;25.952;2024-02-23T00:04:25;12.70;;;7.53;;
71558;SDS011;59382;43.852;25.952;2024-02-23T00:06:50;13.52;;;6.45;;
71558;SDS011;59382;43.852;25.952;2024-02-23T00:09:16;19.30;;;7.13;;
71558;SDS011;59382;43.852;25.952;2024-02-23T00:11:41;12.95;;;6.72;;
71558;SDS011;59382;43.852;25.952;2024-02-23T00:14:12;13.70;;;7.10;;
71558;SDS011;59382;43.852;25.952;2024-02-23T00:16:40;9.60;;;6.13;;
71558;SDS011;59382;43.852;25.952;2024-02-23T00:19:09;12.48;;;6.05;;
71558;SDS011;59382;43.852;25.952;2024-02-23T00:21:35;13.45;;;5.97;;
71558;SDS011;59382;43.852;25.952;2024-02-23T00:24:01;14.13;;;6.90;;
71558;SDS011;59382;43.852;25.952;2024-02-23T00:26:27;14.18;;;6.55;;
71558;SDS011;59382;43.852;25.952;2024-02-23T00:28:54;13.00;;;6.45;;
71558;SDS011;59382;43.852;25.952;2024-02-23T00:31:19;12.70;;;7.60;;
71558;SDS011;59382;43.852;25.952;2024-02-23T00:33:45;13.25;;;6.85;;
71558;SDS011;59382;43.852;25.952;2024-02-23T00:36:10;12.70;;;7.25;;
71558;SDS011;59382;43.852;25.952;2024-02-23T00:38:36;17.95;;;7.80;;
71558;SDS011;59382;43.852;25.952;2024-02-23T00:41:02;13.95;;;7.35;;
71558;SDS011;59382;43.852;25.952;2024-02-23T00:43:27;14.38;;;7.30;;
71558;SDS011;59382;43.852;25.952;2024-02-23T00:45:54;15.45;;;8.77;;
71558;SDS011;59382;43.852;25.952;2024-02-23T00:48:20;19.67;;;10.98;;
71558;SDS011;59382;43.852;25.952;2024-02-23T00:50:46;20.83;;;9.40;;
71558;SDS011;59382;43.852;25.952;2024-02-23T00:53:11;18.98;;;9.07;;
71558;SDS011;59382;43.852;25.952;2024-02-23T00:55:37;11.13;;;6.72;;
71558;SDS011;59382;43.852;25.952;2024-02-23T00:58:03;12.18;;;5.05;;
71558;SDS011;59382;43.852;25.952;2024-02-23T01:00:28;8.88;;;5.50;;
71558;SDS011;59382;43.852;25.952;2024-02-23T01:02:54;12.00;;;6.25;;
71558;SDS011;59382;43.852;25.952;2024-02-23T01:05:20;14.27;;;6.18;;
71558;SDS011;59382;43.852;25.952;2024-02-23T01:07:45;19.08;;;7.93;;
71558;SDS011;59382;43.852;25.952;2024-02-23T01:10:11;15.35;;;7.72;;
71558;SDS011;59382;43.852;25.952;2024-02-23T01:12:37;16.33;;;9.10;;
71558;SDS011;59382;43.852;25.952;2024-02-23T01:15:02;17.25;;;7.85;;
71558;SDS011;59382;43.852;25.952;2024-02-23T01:17:28;15.30;;;6.93;;
71558;SDS011;59382;43.852;25.952;2024-02-23T01:19:54;10.15;;;5.80;;
71558;SDS011;59382;43.852;25.952;2024-02-23T01:22:19;14.00;;;5.68;;
71558;SDS011;59382;43.852;25.952;2024-02-23T01:24:45;8.55;;;5.35;;
71558;SDS011;59382;43.852;25.952;2024-02-23T01:27:10;9.40;;;4.82;;
71558;SDS011;59382;43.852;25.952;2024-02-23T01:29:37;9.85;;;5.75;;
71558;SDS011;59382;43.852;25.952;2024-02-23T01:32:06;6.25;;;3.88;;
71558;SDS011;59382;43.852;25.952;2024-02-23T01:34:31;5.68;;;3.30;;
71558;SDS011;59382;43.852;25.952;2024-02-23T01:36:57;5.00;;;3.85;;
71558;SDS011;59382;43.852;25.952;2024-02-23T01:39:22;3.60;;;2.90;;
71558;SDS011;59382;43.852;25.952;2024-02-23T01:41:48;5.68;;;3.83;;
71558;SDS011;59382;43.852;25.952;2024-02-23T01:44:14;5.22;;;3.53;;
71558;SDS011;59382;43.852;25.952;2024-02-23T01:46:40;7.45;;;3.50;;
71558;SDS011;59382;43.852;25.952;2024-02-23T01:49:06;5.25;;;3.75;;
71558;SDS011;59382;43.852;25.952;2024-02-23T01:51:33;3.58;;;3.13;;
71558;SDS011;59382;43.852;25.952;2024-02-23T01:53:59;5.38;;;3.92;;
71558;SDS011;59382;43.852;25.952;2024-02-23T01:56:25;8.20;;;4.30;;
71558;SDS011;59382;43.852;25.952;2024-02-23T01:58:51;7.50;;;3.03;;
71558;SDS011;59382;43.852;25.952;2024-02-23T02:01:19;6.95;;;3.10;;
71558;SDS011;59382;43.852;25.952;2024-02-23T02:03:44;4.97;;;3.47;;
71558;SDS011;59382;43.852;25.952;2024-02-23T02:06:10;7.20;;;3.45;;
71558;SDS011;59382;43.852;25.952;2024-02-23T02:08:36;7.43;;;3.80;;
71558;SDS011;59382;43.852;25.952;2024-02-23T02:11:02;4.80;;;3.00;;
71558;SDS011;59382;43.852;25.952;2024-02-23T02:13:28;5.10;;;3.40;;
71558;SDS011;59382;43.852;25.952;2024-02-23T02:15:54;6.38;;;3.33;;
71558;SDS011;59382;43.852;25.952;2024-02-23T02:18:20;3.72;;;3.30;;
71558;SDS011;59382;43.852;25.952;2024-02-23T02:20:52;4.38;;;2.50;;
71558;SDS011;59382;43.852;25.952;2024-02-23T02:23:20;5.43;;;3.42;;
71558;SDS011;59382;43.852;25.952;2024-02-23T02:25:52;4.72;;;3.75;;
71558;SDS011;59382;43.852;25.952;2024-02-23T02:28:21;4.97;;;3.45;;
71558;SDS011;59382;43.852;25.952;2024-02-23T02:30:48;4.03;;;3.10;;
71558;SDS011;59382;43.852;25.952;2024-02-23T02:33:14;3.95;;;3.55;;
71558;SDS011;59382;43.852;25.952;2024-02-23T02:35:40;3.30;;;2.80;;
71558;SDS011;59382;43.852;25.952;2024-02-23T02:38:05;4.93;;;3.10;;
71558;SDS011;59382;43.852;25.952;2024-02-23T02:40:31;4.32;;;2.80;;
71558;SDS011;59382;43.852;25.952;2024-02-23T02:42:57;4.95;;;3.42;;
71558;SDS011;59382;43.852;25.952;2024-02-23T02:45:25;5.50;;;3.50;;
71558;SDS011;59382;43.852;25.952;2024-02-23T02:47:51;7.32;;;3.80;;
71558;SDS011;59382;43.852;25.952;2024-02-23T02:50:16;4.35;;;3.20;;
71558;SDS011;59382;43.852;25.952;2024-02-23T02:52:42;5.50;;;3.33;;
71558;SDS011;59382;43.852;25.952;2024-02-23T02:55:07;3.85;;;2.92;;
71558;SDS011;59382;43.852;25.952;2024-02-23T02:57:33;7.70;;;3.58;;
71558;SDS011;59382;43.852;25.952;2024-02-23T03:00:04;4.95;;;3.35;;
71558;SDS011;59382;43.852;25.952;2024-02-23T03:02:30;6.53;;;3.63;;
71558;SDS011;59382;43.852;25.952;2024-02-23T03:04:56;6.15;;;2.85;;
71558;SDS011;59382;43.852;25.952;2024-02-23T03:07:22;4.53;;;3.33;;
71558;SDS011;59382;43.852;25.952;2024-02-23T03:09:47;6.75;;;3.50;;
71558;SDS011;59382;43.852;25.952;2024-02-23T03:12:14;4.30;;;3.42;;
71558;SDS011;59382;43.852;25.952;2024-02-23T03:14:41;7.90;;;3.55;;
71558;SDS011;59382;43.852;25.952;2024-02-23T03:17:07;4.20;;;3.30;;
71558;SDS011;59382;43.852;25.952;2024-02-23T03:19:34;4.43;;;3.50;;
71558;SDS011;59382;43.852;25.952;2024-02-23T03:22:00;8.10;;;3.55;;
71558;SDS011;59382;43.852;25.952;2024-02-23T03:24:26;5.70;;;3.90;;
71558;SDS011;59382;43.852;25.952;2024-02-23T03:26:51;3.42;;;2.85;;
71558;SDS011;59382;43.852;25.952;2024-02-23T03:29:17;5.97;;;3.40;;
71558;SDS011;59382;43.852;25.952;2024-02-23T03:31:43;3.60;;;3.13;;
71558;SDS011;59382;43.852;25.952;2024-02-23T03:34:08;3.42;;;2.75;;
71558;SDS011;59382;43.852;25.952;2024-02-23T03:36:34;5.70;;;3.13;;
71558;SDS011;59382;43.852;25.952;2024-02-23T03:39:00;8.38;;;3.85;;
71558;SDS011;59382;43.852;25.952;2024-02-23T03:41:25;4.03;;;3.13;;
71558;SDS011;59382;43.852;25.952;2024-02-23T03:43:51;5.80;;;3.50;;
71558;SDS011;59382;43.852;25.952;2024-02-23T03:46:16;5.22;;;3.70;;
71558;SDS011;59382;43.852;25.952;2024-02-23T03:48:43;4.57;;;3.45;;
71558;SDS011;59382;43.852;25.952;2024-02-23T03:51:09;5.03;;;3.97;;
71558;SDS011;59382;43.852;25.952;2024-02-23T03:53:35;4.72;;;3.35;;
71558;SDS011;59382;43.852;25.952;2024-02-23T03:56:01;4.63;;;3.03;;
71558;SDS011;59382;43.852;25.952;2024-02-23T03:58:28;8.88;;;3.33;;
71558;SDS011;59382;43.852;25.952;2024-02-23T04:00:54;4.05;;;2.67;;
71558;SDS011;59382;43.852;25.952;2024-02-23T04:03:19;5.38;;;2.85;;
71558;SDS011;59382;43.852;25.952;2024-02-23T04:05:45;4.05;;;2.83;;
71558;SDS011;59382;43.852;25.952;2024-02-23T04:08:11;7.22;;;3.55;;
71558;SDS011;59382;43.852;25.952;2024-02-23T04:10:36;3.28;;;2.65;;
71558;SDS011;59382;43.852;25.952;2024-02-23T04:13:02;6.93;;;3.95;;
71558;SDS011;59382;43.852;25.952;2024-02-23T04:15:28;4.13;;;3.22;;
71558;SDS011;59382;43.852;25.952;2024-02-23T04:17:53;4.35;;;3.03;;
71558;SDS011;59382;43.852;25.952;2024-02-23T04:20:19;5.30;;;3.33;;
71558;SDS011;59382;43.852;25.952;2024-02-23T04:22:44;9.35;;;4.05;;
71558;SDS011;59382;43.852;25.952;2024-02-23T04:25:10;5.32;;;3.25;;
71558;SDS011;59382;43.852;25.952;2024-02-23T04:27:35;6.25;;;3.58;;
71558;SDS011;59382;43.852;25.952;2024-02-23T04:30:01;7.60;;;3.55;;
71558;SDS011;59382;43.852;25.952;2024-02-23T04:32:27;10.27;;;4.13;;
71558;SDS011;59382;43.852;25.952;2024-02-23T04:34:53;5.70;;;3.53;;
71558;SDS011;59382;43.852;25.952;2024-02-23T04:37:18;7.80;;;3.17;;
71558;SDS011;59382;43.852;25.952;2024-02-23T04:39:44;7.43;;;3.90;;
71558;SDS011;59382;43.852;25.952;2024-02-23T04:42:10;5.28;;;3.40;;
71558;SDS011;59382;43.852;25.952;2024-02-23T04:44:35;3.63;;;3.33;;
71558;SDS011;59382;43.852;25.952;2024-02-23T04:47:01;11.38;;;2.97;;
71558;SDS011;59382;43.852;25.952;2024-02-23T04:49:27;8.88;;;2.80;;
71558;SDS011;59382;43.852;25.952;2024-02-23T04:51:53;8.63;;;3.08;;
71558;SDS011;59382;43.852;25.952;2024-02-23T04:54:18;10.57;;;4.15;;
71558;SDS011;59382;43.852;25.952;2024-02-23T04:56:44;7.20;;;5.13;;
71558;SDS011;59382;43.852;25.952;2024-02-23T04:59:09;6.80;;;3.35;;
71558;SDS011;59382;43.852;25.952;2024-02-23T05:01:38;5.10;;;3.28;;
71558;SDS011;59382;43.852;25.952;2024-02-23T05:04:03;4.95;;;3.30;;
71558;SDS011;59382;43.852;25.952;2024-02-23T05:06:29;5.07;;;3.75;;
71558;SDS011;59382;43.852;25.952;2024-02-23T05:08:55;5.82;;;3.85;;
71558;SDS011;59382;43.852;25.952;2024-02-23T05:11:24;5.32;;;3.63;;
71558;SDS011;59382;43.852;25.952;2024-02-23T05:13:50;4.80;;;3.38;;
71558;SDS011;59382;43.852;25.952;2024-02-23T05:16:15;7.80;;;3.60;;
71558;SDS011;59382;43.852;25.952;2024-02-23T05:18:41;6.75;;;4.18;;
71558;SDS011;59382;43.852;25.952;2024-02-23T05:21:07;13.93;;;4.93;;
71558;SDS011;59382;43.852;25.952;2024-02-23T05:23:33;7.68;;;4.03;;
71558;SDS011;59382;43.852;25.952;2024-02-23T05:25:58;7.57;;;3.90;;
71558;SDS011;59382;43.852;25.952;2024-02-23T05:28:24;10.63;;;3.75;;
71558;SDS011;59382;43.852;25.952;2024-02-23T05:30:50;9.00;;;4.05;;
71558;SDS011;59382;43.852;25.952;2024-02-23T05:33:16;13.57;;;4.95;;
71558;SDS011;59382;43.852;25.952;2024-02-23T05:35:46;8.38;;;3.78;;
71558;SDS011;59382;43.852;25.952;2024-02-23T05:38:14;8.15;;;3.30;;
71558;SDS011;59382;43.852;25.952;2024-02-23T05:40:42;7.97;;;4.85;;
71558;SDS011;59382;43.852;25.952;2024-02-23T05:43:08;6.55;;;3.88;;
71558;SDS011;59382;43.852;25.952;2024-02-23T05:45:33;4.22;;;3.35;;
71558;SDS011;59382;43.852;25.952;2024-02-23T05:47:59;5.75;;;4.07;;
71558;SDS011;59382;43.852;25.952;2024-02-23T05:50:25;12.38;;;5.00;;
71558;SDS011;59382;43.852;25.952;2024-02-23T05:52:50;12.82;;;6.13;;
71558;SDS011;59382;43.852;25.952;2024-02-23T05:55:18;10.32;;;4.80;;
71558;SDS011;59382;43.852;25.952;2024-02-23T05:57:43;9.57;;;5.53;;
71558;SDS011;59382;43.852;25.952;2024-02-23T06:00:09;13.50;;;5.55;;
71558;SDS011;59382;43.852;25.952;2024-02-23T06:02:35;10.80;;;4.85;;
71558;SDS011;59382;43.852;25.952;2024-02-23T06:05:00;10.65;;;5.25;;
71558;SDS011;59382;43.852;25.952;2024-02-23T06:07:26;15.45;;;5.72;;
71558;SDS011;59382;43.852;25.952;2024-02-23T06:09:56;10.43;;;5.63;;
71558;SDS011;59382;43.852;25.952;2024-02-23T06:12:22;23.20;;;6.00;;
71558;SDS011;59382;43.852;25.952;2024-02-23T06:14:50;4.78;;;3.90;;
71558;SDS011;59382;43.852;25.952;2024-02-23T06:17:16;8.63;;;4.18;;
71558;SDS011;59382;43.852;25.952;2024-02-23T06:19:41;7.80;;;4.13;;
71558;SDS011;59382;43.852;25.952;2024-02-23T06:22:07;13.00;;;4.40;;
71558;SDS011;59382;43.852;25.952;2024-02-23T06:24:35;16.00;;;5.32;;
71558;SDS011;59382;43.852;25.952;2024-02-23T06:27:00;10.00;;;4.82;;
71558;SDS011;59382;43.852;25.952;2024-02-23T06:29:28;6.75;;;4.20;;
71558;SDS011;59382;43.852;25.952;2024-02-23T06:31:55;6.32;;;4.18;;
71558;SDS011;59382;43.852;25.952;2024-02-23T06:34:20;9.45;;;4.47;;
71558;SDS011;59382;43.852;25.952;2024-02-23T06:36:46;6.68;;;4.40;;
71558;SDS011;59382;43.852;25.952;2024-02-23T06:39:12;9.80;;;5.28;;
71558;SDS011;59382;43.852;25.952;2024-02-23T06:41:38;9.05;;;5.15;;
71558;SDS011;59382;43.852;25.952;2024-02-23T06:44:06;12.85;;;4.75;;
71558;SDS011;59382;43.852;25.952;2024-02-23T06:46:32;12.57;;;5.15;;
71558;SDS011;59382;43.852;25.952;2024-02-23T06:48:57;8.50;;;5.07;;
71558;SDS011;59382;43.852;25.952;2024-02-23T06:51:25;11.48;;;5.20;;
71558;SDS011;59382;43.852;25.952;2024-02-23T06:53:51;6.45;;;4.70;;
71558;SDS011;59382;43.852;25.952;2024-02-23T06:56:17;11.98;;;4.85;;
71558;SDS011;59382;43.852;25.952;2024-02-23T06:58:44;9.57;;;4.47;;
71558;SDS011;59382;43.852;25.952;2024-02-23T07:01:10;8.93;;;4.78;;
71558;SDS011;59382;43.852;25.952;2024-02-23T07:03:40;21.17;;;5.18;;
71558;SDS011;59382;43.852;25.952;2024-02-23T07:06:10;7.65;;;5.00;;
71558;SDS011;59382;43.852;25.952;2024-02-23T07:08:36;6.57;;;4.43;;
71558;SDS011;59382;43.852;25.952;2024-02-23T07:11:02;9.68;;;4.10;;
71558;SDS011;59382;43.852;25.952;2024-02-23T07:13:27;5.20;;;3.92;;
71558;SDS011;59382;43.852;25.952;2024-02-23T07:15:53;13.88;;;4.85;;
71558;SDS011;59382;43.852;25.952;2024-02-23T07:18:21;10.25;;;4.45;;
71558;SDS011;59382;43.852;25.952;2024-02-23T07:20:47;8.70;;;4.15;;
71558;SDS011;59382;43.852;25.952;2024-02-23T07:23:12;7.43;;;4.00;;
71558;SDS011;59382;43.852;25.952;2024-02-23T07:25:41;8.70;;;4.28;;
71558;SDS011;59382;43.852;25.952;2024-02-23T07:28:07;9.57;;;4.55;;
71558;SDS011;59382;43.852;25.952;2024-02-23T07:30:33;11.18;;;4.38;;
71558;SDS011;59382;43.852;25.952;2024-02-23T07:33:00;5.38;;;4.88;;
71558;SDS011;59382;43.852;25.952;2024-02-23T07:35:26;8.05;;;4.45;;
71558;SDS011;59382;43.852;25.952;2024-02-23T07:37:51;10.20;;;4.15;;
71558;SDS011;59382;43.852;25.952;2024-02-23T07:40:17;8.90;;;4.05;;
71558;SDS011;59382;43.852;25.952;2024-02-23T07:42:45;6.13;;;4.03;;
71558;SDS011;59382;43.852;25.952;2024-02-23T07:45:11;7.13;;;4.20;;
71558;SDS011;59382;43.852;25.952;2024-02-23T07:47:37;13.95;;;4.68;;
71558;SDS011;59382;43.852;25.952;2024-02-23T07:50:05;9.45;;;4.10;;
71558;SDS011;59382;43.852;25.952;2024-02-23T07:52:32;8.43;;;4.53;;
71558;SDS011;59382;43.852;25.952;2024-02-23T07:54:57;11.95;;;4.20;;
71558;SDS011;59382;43.852;25.952;2024-02-23T07:57:23;4.45;;;3.72;;
71558;SDS011;59382;43.852;25.952;2024-02-23T07:59:49;5.57;;;3.72;;
71558;SDS011;59382;43.852;25.952;2024-02-23T08:02:15;4.82;;;3.00;;
71558;SDS011;59382;43.852;25.952;2024-02-23T08:04:40;12.75;;;3.55;;
71558;SDS011;59382;43.852;25.952;2024-02-23T08:07:07;4.88;;;3.42;;
71558;SDS011;59382;43.852;25.952;2024-02-23T08:09:33;5.03;;;3.47;;
71558;SDS011;59382;43.852;25.952;2024-02-23T08:11:59;4.88;;;2.78;;
71558;SDS011;59382;43.852;25.952;2024-02-23T08:14:24;6.10;;;2.88;;
71558;SDS011;59382;43.852;25.952;2024-02-23T08:16:50;4.07;;;3.10;;
71558;SDS011;59382;43.852;25.952;2024-02-23T08:19:15;3.05;;;2.67;;
71558;SDS011;59382;43.852;25.952;2024-02-23T08:21:41;4.85;;;3.30;;
71558;SDS011;59382;43.852;25.952;2024-02-23T08:24:07;12.27;;;3.47;;
71558;SDS011;59382;43.852;25.952;2024-02-23T08:26:32;6.10;;;2.67;;
71558;SDS011;59382;43.852;25.952;2024-02-23T08:28:59;5.60;;;2.92;;
71558;SDS011;59382;43.852;25.952;2024-02-23T08:31:24;3.40;;;2.53;;
71558;SDS011;59382;43.852;25.952;2024-02-23T08:33:50;3.13;;;2.65;;
71558;SDS011;59382;43.852;25.952;2024-02-23T08:36:15;3.13;;;2.67;;
71558;SDS011;59382;43.852;25.952;2024-02-23T08:38:41;5.70;;;2.83;;
71558;SDS011;59382;43.852;25.952;2024-02-23T08:41:06;4.63;;;2.75;;
71558;SDS011;59382;43.852;25.952;2024-02-23T08:43:32;4.40;;;2.88;;
71558;SDS011;59382;43.852;25.952;2024-02-23T08:45:57;5.63;;;4.53;;
71558;SDS011;59382;43.852;25.952;2024-02-23T08:48:22;3.65;;;2.78;;
71558;SDS011;59382;43.852;25.952;2024-02-23T08:50:48;5.97;;;3.40;;
71558;SDS011;59382;43.852;25.952;2024-02-23T08:53:14;9.60;;;4.40;;
71558;SDS011;59382;43.852;25.952;2024-02-23T08:55:40;4.80;;;3.70;;
71558;SDS011;59382;43.852;25.952;2024-02-23T08:58:05;6.22;;;3.85;;
71558;SDS011;59382;43.852;25.952;2024-02-23T09:00:34;5.38;;;3.45;;
71558;SDS011;59382;43.852;25.952;2024-02-23T09:03:02;13.63;;;4.05;;
71558;SDS011;59382;43.852;25.952;2024-02-23T09:05:28;8.02;;;3.95;;
71558;SDS011;59382;43.852;25.952;2024-02-23T09:07:53;9.93;;;3.85;;
71558;SDS011;59382;43.852;25.952;2024-02-23T09:10:19;14.63;;;4.30;;
71558;SDS011;59382;43.852;25.952;2024-02-23T09:12:44;11.65;;;3.97;;
71558;SDS011;59382;43.852;25.952;2024-02-23T09:15:10;8.13;;;4.13;;
71558;SDS011;59382;43.852;25.952;2024-02-23T09:17:36;3.97;;;3.22;;
71558;SDS011;59382;43.852;25.952;2024-02-23T09:20:01;6.57;;;3.72;;
71558;SDS011;59382;43.852;25.952;2024-02-23T09:22:27;6.05;;;4.20;;
71558;SDS011;59382;43.852;25.952;2024-02-23T09:24:52;10.40;;;3.63;;
71558;SDS011;59382;43.852;25.952;2024-02-23T09:27:21;4.28;;;2.85;;
71558;SDS011;59382;43.852;25.952;2024-02-23T09:29:47;7.10;;;4.35;;
71558;SDS011;59382;43.852;25.952;2024-02-23T09:32:12;7.95;;;4.00;;
71558;SDS011;59382;43.852;25.952;2024-02-23T09:34:39;5.70;;;3.53;;
71558;SDS011;59382;43.852;25.952;2024-02-23T09:37:05;8.02;;;3.10;;
71558;SDS011;59382;43.852;25.952;2024-02-23T09:39:30;7.78;;;3.28;;
71558;SDS011;59382;43.852;25.952;2024-02-23T09:41:56;5.22;;;3.42;;
71558;SDS011;59382;43.852;25.952;2024-02-23T09:44:31;7.93;;;3.25;;
71558;SDS011;59382;43.852;25.952;2024-02-23T09:47:01;5.10;;;3.25;;
71558;SDS011;59382;43.852;25.952;2024-02-23T09:49:34;6.22;;;3.70;;
71558;SDS011;59382;43.852;25.952;2024-02-23T09:52:12;8.85;;;3.90;;
71558;SDS011;59382;43.852;25.952;2024-02-23T09:54:38;6.90;;;3.20;;
71558;SDS011;59382;43.852;25.952;2024-02-23T09:57:06;11.20;;;4.70;;
71558;SDS011;59382;43.852;25.952;2024-02-23T09:59:33;16.55;;;4.30;;
71558;SDS011;59382;43.852;25.952;2024-02-23T10:02:00;5.45;;;3.40;;
71558;SDS011;59382;43.852;25.952;2024-02-23T10:04:27;6.30;;;2.67;;
71558;SDS011;59382;43.852;25.952;2024-02-23T10:06:54;2.63;;;2.38;;
71558;SDS011;59382;43.852;25.952;2024-02-23T10:09:20;4.80;;;2.80;;
71558;SDS011;59382;43.852;25.952;2024-02-23T10:11:51;6.25;;;3.10;;
71558;SDS011;59382;43.852;25.952;2024-02-23T10:14:18;5.47;;;2.55;;
71558;SDS011;59382;43.852;25.952;2024-02-23T10:16:44;9.95;;;2.95;;
71558;SDS011;59382;43.852;25.952;2024-02-23T10:19:10;3.63;;;2.67;;
71558;SDS011;59382;43.852;25.952;2024-02-23T10:21:35;5.03;;;2.80;;
71558;SDS011;59382;43.852;25.952;2024-02-23T10:24:01;4.20;;;2.90;;
71558;SDS011;59382;43.852;25.952;2024-02-23T10:26:27;8.05;;;3.22;;
71558;SDS011;59382;43.852;25.952;2024-02-23T10:28:52;3.42;;;2.80;;
71558;SDS011;59382;43.852;25.952;2024-02-23T10:31:18;6.85;;;2.97;;
71558;SDS011;59382;43.852;25.952;2024-02-23T10:33:44;4.35;;;2.58;;
71558;SDS011;59382;43.852;25.952;2024-02-23T10:36:12;4.50;;;2.67;;
71558;SDS011;59382;43.852;25.952;2024-02-23T10:38:41;8.23;;;3.50;;
71558;SDS011;59382;43.852;25.952;2024-02-23T10:41:10;6.20;;;3.00;;
71558;SDS011;59382;43.852;25.952;2024-02-23T10:43:46;3.60;;;2.47;;
71558;SDS011;59382;43.852;25.952;2024-02-23T10:46:13;3.40;;;2.65;;
71558;SDS011;59382;43.852;25.952;2024-02-23T10:48:43;8.43;;;2.47;;
71558;SDS011;59382;43.852;25.952;2024-02-23T10:51:10;8.23;;;2.83;;
71558;SDS011;59382;43.852;25.952;2024-02-23T10:53:38;3.80;;;2.35;;
71558;SDS011;59382;43.852;25.952;2024-02-23T10:56:04;3.67;;;2.33;;
71558;SDS011;59382;43.852;25.952;2024-02-23T10:58:31;4.40;;;2.78;;
71558;SDS011;59382;43.852;25.952;2024-02-23T11:01:01;3.95;;;2.67;;
71558;SDS011;59382;43.852;25.952;2024-02-23T11:03:29;6.20;;;2.40;;
71558;SDS011;59382;43.852;25.952;2024-02-23T11:05:56;4.68;;;2.35;;
71558;SDS011;59382;43.852;25.952;2024-02-23T11:08:22;3.00;;;2.17;;
71558;SDS011;59382;43.852;25.952;2024-02-23T11:10:52;5.82;;;2.90;;
71558;SDS011;59382;43.852;25.952;2024-02-23T11:13:17;2.92;;;1.98;;
71558;SDS011;59382;43.852;25.952;2024-02-23T11:15:43;3.22;;;2.35;;
71558;SDS011;59382;43.852;25.952;2024-02-23T11:21:09;2.53;;;2.13;;
71558;SDS011;59382;43.852;25.952;2024-02-23T11:23:39;2.55;;;1.98;;
71558;SDS011;59382;43.852;25.952;2024-02-23T11:26:16;5.53;;;2.28;;
71558;SDS011;59382;43.852;25.952;2024-02-23T11:28:48;4.45;;;1.95;;
71558;SDS011;59382;43.852;25.952;2024-02-23T11:31:15;8.15;;;2.38;;
71558;SDS011;59382;43.852;25.952;2024-02-23T11:36:23;5.88;;;2.67;;
71558;SDS011;59382;43.852;25.952;2024-02-23T11:38:59;2.33;;;1.85;;
71558;SDS011;59382;43.852;25.952;2024-02-23T11:41:26;6.93;;;3.22;;
71558;SDS011;59382;43.852;25.952;2024-02-23T11:43:53;5.90;;;2.63;;
71558;SDS011;59382;43.852;25.952;2024-02-23T11:46:25;2.88;;;1.80;;
71558;SDS011;59382;43.852;25.952;2024-02-23T11:48:51;5.70;;;2.22;;
71558;SDS011;59382;43.852;25.952;2024-02-23T11:51:20;3.33;;;2.05;;
71558;SDS011;59382;43.852;25.952;2024-02-23T11:53:48;3.95;;;2.78;;
71558;SDS011;59382;43.852;25.952;2024-02-23T11:56:15;2.38;;;1.95;;
71558;SDS011;59382;43.852;25.952;2024-02-23T11:58:44;6.13;;;2.65;;
71558;SDS011;59382;43.852;25.952;2024-02-23T12:01:09;6.20;;;2.15;;
71558;SDS011;59382;43.852;25.952;2024-02-23T12:03:35;3.00;;;2.20;;
71558;SDS011;59382;43.852;25.952;2024-02-23T12:06:01;5.32;;;1.83;;
71558;SDS011;59382;43.852;25.952;2024-02-23T12:08:27;5.30;;;2.25;;
71558;SDS011;59382;43.852;25.952;2024-02-23T12:10:55;3.65;;;1.58;;
71558;SDS011;59382;43.852;25.952;2024-02-23T12:13:21;6.05;;;2.20;;
71558;SDS011;59382;43.852;25.952;2024-02-23T12:15:52;3.05;;;2.30;;
71558;SDS011;59382;43.852;25.952;2024-02-23T12:18:20;1.88;;;1.70;;
71558;SDS011;59382;43.852;25.952;2024-02-23T12:20:48;6.07;;;2.30;;
71558;SDS011;59382;43.852;25.952;2024-02-23T12:23:14;3.97;;;1.90;;
71558;SDS011;59382;43.852;25.952;2024-02-23T12:25:55;3.53;;;2.45;;
71558;SDS011;59382;43.852;25.952;2024-02-23T12:28:22;2.13;;;1.92;;
71558;SDS011;59382;43.852;25.952;2024-02-23T12:30:58;4.03;;;2.33;;
71558;SDS011;59382;43.852;25.952;2024-02-23T12:33:24;6.63;;;2.38;;
71558;SDS011;59382;43.852;25.952;2024-02-23T12:35:53;5.25;;;2.35;;
71558;SDS011;59382;43.852;25.952;2024-02-23T12:38:20;4.30;;;1.88;;
71558;SDS011;59382;43.852;25.952;2024-02-23T12:40:46;2.33;;;1.83;;
71558;SDS011;59382;43.852;25.952;2024-02-23T12:43:15;2.45;;;1.90;;
71558;SDS011;59382;43.852;25.952;2024-02-23T12:45:41;3.45;;;1.90;;
71558;SDS011;59382;43.852;25.952;2024-02-23T12:48:06;6.28;;;2.38;;
71558;SDS011;59382;43.852;25.952;2024-02-23T12:50:32;2.33;;;1.90;;
71558;SDS011;59382;43.852;25.952;2024-02-23T12:52:57;3.25;;;1.85;;
71558;SDS011;59382;43.852;25.952;2024-02-23T12:55:26;2.75;;;1.60;;
71558;SDS011;59382;43.852;25.952;2024-02-23T12:57:52;6.10;;;1.73;;
71558;SDS011;59382;43.852;25.952;2024-02-23T13:00:17;8.32;;;1.98;;
71558;SDS011;59382;43.852;25.952;2024-02-23T13:02:43;1.77;;;1.65;;
71558;SDS011;59382;43.852;25.952;2024-02-23T13:05:09;1.98;;;1.77;;
71558;SDS011;59382;43.852;25.952;2024-02-23T13:07:35;4.15;;;2.20;;
71558;SDS011;59382;43.852;25.952;2024-02-23T13:10:00;4.05;;;2.45;;
71558;SDS011;59382;43.852;25.952;2024-02-23T13:12:26;5.30;;;2.30;;
71558;SDS011;59382;43.852;25.952;2024-02-23T13:14:51;3.72;;;1.98;;
71558;SDS011;59382;43.852;25.952;2024-02-23T13:17:17;3.00;;;1.60;;
71558;SDS011;59382;43.852;25.952;2024-02-23T13:19:43;3.40;;;1.70;;
71558;SDS011;59382;43.852;25.952;2024-02-23T13:22:08;2.60;;;1.80;;
71558;SDS011;59382;43.852;25.952;2024-02-23T13:24:34;3.08;;;2.00;;
71558;SDS011;59382;43.852;25.952;2024-02-23T13:26:59;7.55;;;1.75;;
71558;SDS011;59382;43.852;25.952;2024-02-23T13:29:30;4.25;;;1.75;;
71558;SDS011;59382;43.852;25.952;2024-02-23T13:31:55;1.75;;;1.50;;
71558;SDS011;59382;43.852;25.952;2024-02-23T13:34:21;2.97;;;2.15;;
71558;SDS011;59382;43.852;25.952;2024-02-23T13:36:47;3.92;;;1.83;;
71558;SDS011;59382;43.852;25.952;2024-02-23T13:39:14;2.63;;;1.98;;
71558;SDS011;59382;43.852;25.952;2024-02-23T13:41:40;2.95;;;2.08;;
71558;SDS011;59382;43.852;25.952;2024-02-23T13:44:06;2.83;;;1.90;;
71558;SDS011;59382;43.852;25.952;2024-02-23T13:46:34;3.35;;;2.17;;
71558;SDS011;59382;43.852;25.952;2024-02-23T13:49:04;5.90;;;1.95;;
71558;SDS011;59382;43.852;25.952;2024-02-23T13:51:32;6.18;;;1.73;;
71558;SDS011;59382;43.852;25.952;2024-02-23T13:53:58;2.53;;;1.70;;
71558;SDS011;59382;43.852;25.952;2024-02-23T13:56:24;2.45;;;1.90;;
71558;SDS011;59382;43.852;25.952;2024-02-23T13:58:49;2.80;;;2.08;;
71558;SDS011;59382;43.852;25.952;2024-02-23T14:01:15;4.43;;;1.50;;
71558;SDS011;59382;43.852;25.952;2024-02-23T14:03:44;3.38;;;1.95;;
71558;SDS011;59382;43.852;25.952;2024-02-23T14:06:09;3.00;;;1.88;;
71558;SDS011;59382;43.852;25.952;2024-02-23T14:08:35;4.70;;;1.92;;
71558;SDS011;59382;43.852;25.952;2024-02-23T14:11:02;2.95;;;2.13;;
71558;SDS011;59382;43.852;25.952;2024-02-23T14:13:30;2.58;;;1.85;;
71558;SDS011;59382;43.852;25.952;2024-02-23T14:15:57;6.75;;;2.15;;
71558;SDS011;59382;43.852;25.952;2024-02-23T14:18:23;6.63;;;2.20;;
71558;SDS011;59382;43.852;25.952;2024-02-23T14:20:49;3.08;;;2.00;;
71558;SDS011;59382;43.852;25.952;2024-02-23T14:23:14;1.98;;;1.83;;
71558;SDS011;59382;43.852;25.952;2024-02-23T14:25:40;4.15;;;2.00;;
71558;SDS011;59382;43.852;25.952;2024-02-23T14:28:05;2.45;;;1.73;;
71558;SDS011;59382;43.852;25.952;2024-02-23T14:30:31;6.60;;;2.80;;
71558;SDS011;59382;43.852;25.952;2024-02-23T14:32:56;1.92;;;1.58;;